createdAt,value
2019-02-03T00:01:23.228Z,101423.50
2019-02-03T00:03:51.227Z,101425.53
2019-02-03T00:06:20.572Z,101425.03
2019-02-03T00:08:51.499Z,101427.15
2019-02-03T00:11:19.520Z,101435.66
2019-02-03T00:13:47.597Z,101434.01
2019-02-03T00:16:15.638Z,101437.88
2019-02-03T00:18:46.716Z,101442.22
2019-02-03T00:21:14.770Z,101450.03
2019-02-03T00:23:42.874Z,101458.78
2019-02-03T00:26:10.794Z,101459.19
2019-02-03T00:28:38.651Z,101457.89
2019-02-03T00:31:06.790Z,101468.23
2019-02-03T00:33:35.024Z,101469.94
2019-02-03T00:36:03.340Z,101472.57
2019-02-03T00:38:31.802Z,101474.36
2019-02-03T00:41:02.548Z,101468.78
2019-02-03T00:43:30.487Z,101471.03
2019-02-03T00:46:01.678Z,101477.05
2019-02-03T00:48:29.765Z,101473.61
2019-02-03T00:50:57.871Z,101483.23
2019-02-03T00:53:25.736Z,101481.55
2019-02-03T00:55:53.986Z,101486.75
2019-02-03T00:58:22.022Z,101491.47
2019-02-03T01:00:49.948Z,101491.94
2019-02-03T01:03:17.919Z,101501.86
2019-02-03T01:05:45.762Z,101502.83
2019-02-03T01:08:14.322Z,101501.55
2019-02-03T01:10:42.395Z,101501.95
2019-02-03T01:13:10.388Z,101512.23
2019-02-03T01:15:38.298Z,101512.21
2019-02-03T01:18:06.797Z,101512.63
2019-02-03T01:20:34.712Z,101519.17
2019-02-03T01:23:03.045Z,101524.38
2019-02-03T01:25:30.940Z,101531.25
2019-02-03T01:27:58.840Z,101530.75
2019-02-03T01:30:26.839Z,101533.73
2019-02-03T01:32:54.758Z,101543.62
2019-02-03T01:35:22.750Z,101536.28
2019-02-03T01:37:51.228Z,101542.22
2019-02-03T01:40:19.824Z,101534.03
2019-02-03T01:42:47.846Z,101534.34
2019-02-03T01:45:18.138Z,101538.19
2019-02-03T01:47:46.622Z,101539.81
2019-02-03T01:50:17.166Z,101540.12
2019-02-03T01:52:45.182Z,101549.06
2019-02-03T01:55:18.113Z,101542.58
2019-02-03T01:57:46.030Z,101544.30
2019-02-03T02:00:20.444Z,101541.18
2019-02-03T02:02:48.514Z,101547.50
2019-02-03T02:05:16.965Z,101549.70
2019-02-03T02:07:51.862Z,101555.41
2019-02-03T02:10:18.324Z,101557.70
2019-02-03T02:12:46.242Z,101561.19
2019-02-03T02:15:16.043Z,101562.16
2019-02-03T02:17:43.963Z,101572.70
2019-02-03T02:20:19.379Z,101569.77
2019-02-03T02:22:47.331Z,101575.80
2019-02-03T02:25:15.607Z,101578.98
2019-02-03T02:27:43.527Z,101584.06
2019-02-03T02:30:15.186Z,101583.66
2019-02-03T02:32:43.193Z,101589.30
2019-02-03T02:35:11.802Z,101592.25
2019-02-03T02:37:39.726Z,101598.34
2019-02-03T02:40:22.644Z,101600.36
2019-02-03T02:42:50.448Z,101607.23
2019-02-03T02:45:18.389Z,101608.03
2019-02-03T02:47:46.441Z,101621.92
2019-02-03T02:50:27.200Z,101631.23
2019-02-03T02:52:55.188Z,101633.36
2019-02-03T02:55:23.058Z,101634.12
2019-02-03T02:57:51.313Z,101628.85
2019-02-03T03:00:24.506Z,101637.20
2019-02-03T03:02:52.532Z,101641.18
2019-02-03T03:05:20.941Z,101648.11
2019-02-03T03:07:48.997Z,101644.77
2019-02-03T03:10:18.103Z,101644.33
2019-02-03T03:12:46.143Z,101654.83
2019-02-03T03:15:15.671Z,101658.74
2019-02-03T03:17:43.706Z,101653.08
2019-02-03T03:20:14.636Z,101659.19
2019-02-03T03:22:43.028Z,101664.31
2019-02-03T03:25:14.232Z,101668.11
2019-02-03T03:27:42.295Z,101667.81
2019-02-03T03:30:21.429Z,101677.30
2019-02-03T03:32:49.495Z,101675.51
2019-02-03T03:35:17.562Z,101674.74
2019-02-03T03:37:46.274Z,101672.11
2019-02-03T03:40:17.334Z,101676.34
2019-02-03T03:42:48.349Z,101681.58
2019-02-03T03:45:16.278Z,101688.88
2019-02-03T03:47:46.563Z,101686.77
2019-02-03T03:50:16.611Z,101687.66
2019-02-03T03:52:47.889Z,101698.88
2019-02-03T03:55:17.136Z,101696.31
2019-02-03T03:57:46.737Z,101707.97
2019-02-03T04:00:23.121Z,101716.16
2019-02-03T04:02:53.679Z,101713.51
2019-02-03T04:05:28.563Z,101716.58
2019-02-03T04:07:57.384Z,101713.60
2019-02-03T04:10:25.892Z,101723.92
2019-02-03T04:12:54.863Z,101731.67
2019-02-03T04:15:23.632Z,101745.11
2019-02-03T04:17:51.978Z,101742.48
2019-02-03T04:20:29.382Z,101754.02
2019-02-03T04:22:57.920Z,101754.48
2019-02-03T04:25:27.245Z,101758.41
2019-02-03T04:27:56.976Z,101764.73
2019-02-03T04:30:26.480Z,101766.45
2019-02-03T04:32:55.779Z,101764.70
2019-02-03T04:35:29.589Z,101765.20
2019-02-03T04:38:00.532Z,101778.64
2019-02-03T04:40:45.760Z,101780.88
2019-02-03T04:43:13.970Z,101780.45
2019-02-03T04:45:41.882Z,101781.28
2019-02-03T04:48:09.843Z,101781.28
2019-02-03T04:50:37.737Z,101789.44
2019-02-03T04:53:06.062Z,101790.27
2019-02-03T04:55:33.986Z,101798.48
2019-02-03T04:58:01.834Z,101799.39
2019-02-03T05:00:29.798Z,101798.95
2019-02-03T05:02:57.761Z,101802.00
2019-02-03T05:05:29.543Z,101814.95
2019-02-03T05:07:57.637Z,101820.56
2019-02-03T05:10:25.529Z,101822.75
2019-02-03T05:12:53.384Z,101820.21
2019-02-03T05:15:23.158Z,101821.48
2019-02-03T05:17:51.138Z,101828.38
2019-02-03T05:20:22.526Z,101827.09
2019-02-03T05:22:50.517Z,101834.81
2019-02-03T05:25:18.450Z,101834.37
2019-02-03T05:27:46.480Z,101838.23
2019-02-03T05:30:21.241Z,101846.42
2019-02-03T05:32:49.278Z,101850.73
2019-02-03T05:35:17.733Z,101851.13
2019-02-03T05:37:48.177Z,101861.47
2019-02-03T05:40:16.486Z,101860.16
2019-02-03T05:42:45.034Z,101865.33
2019-02-03T05:45:16.063Z,101873.52
2019-02-03T05:47:44.164Z,101873.48
2019-02-03T05:50:14.213Z,101884.25
2019-02-03T05:52:43.457Z,101891.98
2019-02-03T05:55:11.820Z,101910.05
2019-02-03T05:57:39.804Z,101906.58
2019-02-03T06:00:12.307Z,101919.92
2019-02-03T06:02:40.677Z,101929.83
2019-02-03T06:05:08.878Z,101934.05
2019-02-03T06:07:36.862Z,101943.06
2019-02-03T06:10:08.950Z,101946.50
2019-02-03T06:12:39.742Z,101952.97
2019-02-03T06:15:08.128Z,101966.73
2019-02-03T06:17:36.211Z,101974.92
2019-02-03T06:20:05.773Z,101964.61
2019-02-03T06:22:33.888Z,101971.94
2019-02-03T06:25:01.749Z,101980.56
2019-02-03T06:27:32.023Z,101982.73
2019-02-03T06:29:59.873Z,101988.33
2019-02-03T06:32:27.874Z,101996.98
2019-02-03T06:34:57.214Z,102003.44
2019-02-03T06:37:25.110Z,102006.45
2019-02-03T06:39:54.460Z,102005.59
2019-02-03T06:42:22.383Z,102012.05
2019-02-03T06:44:50.344Z,102013.77
2019-02-03T06:47:24.219Z,102018.93
2019-02-03T06:49:52.091Z,102031.41
2019-02-03T06:52:19.955Z,102033.14
2019-02-03T06:54:47.914Z,102046.47
2019-02-03T06:57:15.820Z,102052.49
2019-02-03T06:59:50.933Z,102052.50
2019-02-03T07:02:13.944Z,102064.53
2019-02-03T07:04:41.869Z,102069.25
2019-02-03T07:07:09.767Z,102072.69
2019-02-03T07:09:37.565Z,102075.27
2019-02-03T07:12:05.676Z,102083.42
2019-02-03T07:14:33.955Z,102096.33
2019-02-03T07:17:01.775Z,102101.05
2019-02-03T07:19:29.719Z,102107.91
2019-02-03T07:21:57.643Z,102113.06
2019-02-03T07:24:25.445Z,102112.22
2019-02-03T07:26:53.251Z,102105.73
2019-02-03T07:29:21.184Z,102118.22
2019-02-03T07:31:49.010Z,102120.36
2019-02-03T07:34:16.790Z,102120.80
2019-02-03T07:36:44.713Z,102130.24
2019-02-03T07:39:12.520Z,102123.38
2019-02-03T07:41:40.360Z,102127.25
2019-02-03T07:44:08.447Z,102131.53
2019-02-03T07:46:36.662Z,102131.97
2019-02-03T07:49:04.586Z,102132.41
2019-02-03T07:51:32.505Z,102134.55
2019-02-03T07:54:08.098Z,102138.42
2019-02-03T07:56:30.194Z,102141.84
2019-02-03T07:58:58.300Z,102143.58
2019-02-03T08:01:26.412Z,102148.30
2019-02-03T08:03:54.363Z,102139.70
2019-02-03T08:06:22.176Z,102147.89
2019-02-03T08:08:49.987Z,102154.36
2019-02-03T08:11:18.047Z,102149.67
2019-02-03T08:13:45.852Z,102152.66
2019-02-03T08:16:13.872Z,102161.73
2019-02-03T08:18:41.993Z,102166.89
2019-02-03T08:21:09.835Z,102170.33
2019-02-03T08:23:37.716Z,102174.24
2019-02-03T08:26:05.631Z,102179.84
2019-02-03T08:28:33.537Z,102172.98
2019-02-03T08:31:01.354Z,102180.73
2019-02-03T08:33:29.454Z,102191.06
2019-02-03T08:35:57.396Z,102190.66
2019-02-03T08:38:25.187Z,102193.16
2019-02-03T08:40:53.259Z,102196.67
2019-02-03T08:43:21.177Z,102198.81
2019-02-03T08:45:49.079Z,102204.42
2019-02-03T08:48:17.017Z,102202.28
2019-02-03T08:50:44.805Z,102198.88
2019-02-03T08:53:12.717Z,102196.77
2019-02-03T08:55:40.507Z,102193.31
2019-02-03T08:58:08.443Z,102199.78
2019-02-03T09:00:36.442Z,102203.66
2019-02-03T09:03:04.570Z,102205.38
2019-02-03T09:05:32.447Z,102196.80
2019-02-03T09:08:00.548Z,102198.96
2019-02-03T09:10:28.573Z,102204.11
2019-02-03T09:12:56.479Z,102198.09
2019-02-03T09:15:25.027Z,102204.56
2019-02-03T09:17:52.996Z,102198.94
2019-02-03T09:20:27.579Z,102203.27
2019-02-03T09:22:55.422Z,102201.11
2019-02-03T09:25:23.321Z,102204.11
2019-02-03T09:27:51.369Z,102201.94
2019-02-03T09:30:22.284Z,102198.01
2019-02-03T09:32:50.558Z,102202.69
2019-02-03T09:35:18.701Z,102203.98
2019-02-03T09:37:46.714Z,102207.36
2019-02-03T09:40:25.022Z,102204.25
2019-02-03T09:42:52.971Z,102208.08
2019-02-03T09:45:22.194Z,102218.03
2019-02-03T09:47:50.537Z,102223.20
2019-02-03T09:50:23.953Z,102223.04
2019-02-03T09:52:54.254Z,102221.74
2019-02-03T09:55:22.245Z,102224.59
2019-02-03T09:57:50.037Z,102224.55
2019-02-03T10:00:26.776Z,102223.91
2019-02-03T10:02:56.423Z,102227.76
2019-02-03T10:05:24.577Z,102229.09
2019-02-03T10:07:52.745Z,102231.08
2019-02-03T10:10:35.372Z,102236.07
2019-02-03T10:13:04.182Z,102231.68
2019-02-03T10:15:36.075Z,102240.20
2019-02-03T10:18:06.864Z,102246.27
2019-02-03T10:20:34.977Z,102254.38
2019-02-03T10:23:03.375Z,102253.65
2019-02-03T10:25:31.758Z,102258.87
2019-02-03T10:27:59.605Z,102257.94
2019-02-03T10:30:27.836Z,102259.55
2019-02-03T10:32:59.269Z,102255.73
2019-02-03T10:35:27.750Z,102257.65
2019-02-03T10:37:58.783Z,102265.17
2019-02-03T10:40:33.473Z,102263.95
2019-02-03T10:43:02.227Z,102266.68
2019-02-03T10:45:30.983Z,102271.26
2019-02-03T10:47:59.695Z,102276.81
2019-02-03T10:50:34.266Z,102278.73
2019-02-03T10:53:05.153Z,102282.08
2019-02-03T10:55:33.291Z,102282.80
2019-02-03T10:58:01.582Z,102280.48
2019-02-03T11:00:32.790Z,102277.23
2019-02-03T11:03:01.330Z,102282.10
2019-02-03T11:05:36.715Z,102271.42
2019-02-03T11:08:06.204Z,102284.03
2019-02-03T11:10:34.476Z,102279.25
2019-02-03T11:13:02.324Z,102286.27
2019-02-03T11:15:30.327Z,102284.14
2019-02-03T11:17:58.273Z,102285.75
2019-02-03T11:20:29.129Z,102278.41
2019-02-03T11:23:16.886Z,102288.00
2019-02-03T11:25:45.063Z,102151.38
2019-02-03T11:28:13.091Z,102290.06
2019-02-03T11:30:40.952Z,102290.69
2019-02-03T11:33:10.037Z,102294.13
2019-02-03T11:35:38.297Z,102292.09
2019-02-03T11:38:06.830Z,102295.41
2019-02-03T11:40:39.328Z,102293.23
2019-02-03T11:43:07.446Z,102305.28
2019-02-03T11:45:40.950Z,102308.41
2019-02-03T11:48:18.605Z,102312.63
2019-02-03T11:50:46.808Z,102303.46
2019-02-03T11:53:18.430Z,102307.02
2019-02-03T11:55:46.433Z,102305.32
2019-02-03T11:58:14.265Z,102298.69
2019-02-03T12:00:42.319Z,102307.51
2019-02-03T12:03:10.482Z,102305.45
2019-02-03T12:05:38.935Z,102307.69
2019-02-03T12:08:07.387Z,102310.48
2019-02-03T12:10:38.449Z,102308.06
2019-02-03T12:13:09.542Z,102321.52
2019-02-03T12:15:37.687Z,102320.09
2019-02-03T12:18:06.401Z,102313.24
2019-02-03T12:20:35.589Z,102316.16
2019-02-03T12:23:04.395Z,102321.34
2019-02-03T12:25:34.984Z,102330.66
2019-02-03T12:28:05.981Z,102333.36
2019-02-03T12:30:34.577Z,102337.04
2019-02-03T12:33:03.053Z,102332.08
2019-02-03T12:35:30.978Z,102327.96
2019-02-03T12:37:59.056Z,102322.95
2019-02-03T12:40:31.696Z,102325.48
2019-02-03T12:42:59.811Z,102324.87
2019-02-03T12:45:29.156Z,102320.66
2019-02-03T12:47:57.110Z,102328.06
2019-02-03T12:50:25.049Z,102323.62
2019-02-03T12:52:53.203Z,102323.10
2019-02-03T12:55:24.945Z,102319.58
2019-02-03T12:57:53.036Z,102332.05
2019-02-03T13:00:27.066Z,102332.43
2019-02-03T13:02:55.152Z,102328.64
2019-02-03T13:05:25.098Z,102337.98
2019-02-03T13:07:54.313Z,102333.48
2019-02-03T13:10:25.705Z,102332.33
2019-02-03T13:12:54.144Z,102326.86
2019-02-03T13:15:37.799Z,102335.69
2019-02-03T13:18:07.017Z,102338.52
2019-02-03T13:20:35.382Z,102337.48
2019-02-03T13:23:05.221Z,102341.53
2019-02-03T13:25:33.142Z,102344.23
2019-02-03T13:28:01.166Z,102353.00
2019-02-03T13:30:38.084Z,102345.95
2019-02-03T13:33:06.651Z,102347.71
2019-02-03T13:35:34.521Z,102353.52
2019-02-03T13:38:03.120Z,102357.86
2019-02-03T13:40:32.486Z,102361.94
2019-02-03T13:43:02.424Z,102359.72
2019-02-03T13:45:31.916Z,102363.86
2019-02-03T13:48:03.289Z,102359.91
2019-02-03T13:50:32.409Z,102358.83
2019-02-03T13:53:02.496Z,102365.38
2019-02-03T13:55:35.068Z,102363.17
2019-02-03T13:58:07.017Z,102373.11
2019-02-03T14:00:43.674Z,102374.30
2019-02-03T14:03:16.739Z,102377.33
2019-02-03T14:05:48.830Z,102377.75
2019-02-03T14:08:19.385Z,102384.20
2019-02-03T14:10:49.484Z,102385.02
2019-02-03T14:13:19.953Z,102389.97
2019-02-03T14:15:50.571Z,102389.03
2019-02-03T14:18:23.611Z,102392.72
2019-02-03T14:20:54.852Z,102390.04
2019-02-03T14:23:24.708Z,102405.17
2019-02-03T14:25:59.486Z,102410.42
2019-02-03T14:28:28.929Z,102408.20
2019-02-03T14:31:17.672Z,102426.13
2019-02-03T14:33:46.193Z,102432.38
2019-02-03T14:36:16.330Z,102426.27
2019-02-03T14:38:46.531Z,102422.84
2019-02-03T14:41:20.982Z,102425.57
2019-02-03T14:43:49.517Z,102430.67
2019-02-03T14:46:18.012Z,102428.27
2019-02-03T14:48:51.443Z,102430.23
2019-02-03T14:51:27.162Z,102428.83
2019-02-03T14:53:59.938Z,102431.89
2019-02-03T14:56:34.757Z,102440.33
2019-02-03T14:59:06.232Z,102436.82
2019-02-03T15:01:38.419Z,102450.19
2019-02-03T15:04:07.002Z,102455.86
2019-02-03T15:06:38.299Z,102462.38
2019-02-03T15:09:12.835Z,102469.84
2019-02-03T15:11:41.001Z,102470.07
2019-02-03T15:14:09.119Z,102474.76
2019-02-03T15:16:42.214Z,102483.23
2019-02-03T15:19:10.295Z,102477.63
2019-02-03T15:21:40.022Z,102485.85
2019-02-03T15:24:16.424Z,102495.45
2019-02-03T15:26:43.807Z,102502.74
2019-02-03T15:29:11.728Z,102495.09
2019-02-03T15:31:40.179Z,102506.47
2019-02-03T15:34:11.694Z,102505.95
2019-02-03T15:36:44.294Z,102508.86
2019-02-03T15:39:17.321Z,102515.98
2019-02-03T15:41:52.502Z,102516.41
2019-02-03T15:44:21.304Z,102521.30
2019-02-03T15:46:58.499Z,102521.27
2019-02-03T15:49:35.386Z,102518.51
2019-02-03T15:52:03.673Z,102518.54
2019-02-03T15:54:36.670Z,102516.91
2019-02-03T15:57:05.094Z,102514.10
2019-02-03T15:59:34.381Z,102512.81
2019-02-03T16:02:03.657Z,102512.09
2019-02-03T16:04:36.716Z,102514.80
2019-02-03T16:07:07.678Z,102515.41
2019-02-03T16:09:37.754Z,102509.31
2019-02-03T16:12:08.468Z,102513.70
2019-02-03T16:14:36.553Z,102517.16
2019-02-03T16:17:05.158Z,102515.75
2019-02-03T16:19:35.659Z,102516.42
2019-02-03T16:22:03.973Z,102519.07
2019-02-03T16:24:32.400Z,102520.47
2019-02-03T16:27:01.070Z,102520.55
2019-02-03T16:29:29.386Z,102523.59
2019-02-03T16:31:57.406Z,102516.77
2019-02-03T16:34:25.410Z,102514.72
2019-02-03T16:36:53.503Z,102507.45
2019-02-03T16:39:21.411Z,102510.32
2019-02-03T16:41:49.437Z,102514.77
2019-02-03T16:44:17.652Z,102511.37
2019-02-03T16:46:45.758Z,102524.42
2019-02-03T16:49:16.548Z,102528.88
2019-02-03T16:51:44.267Z,102534.19
2019-02-03T16:54:14.692Z,102542.55
2019-02-03T16:56:44.003Z,102542.64
2019-02-03T16:59:11.897Z,102546.62
2019-02-03T17:01:42.219Z,102566.14
2019-02-03T17:04:15.076Z,102560.14
2019-02-03T17:06:43.003Z,102564.98
2019-02-03T17:09:11.438Z,102574.57
2019-02-03T17:11:39.503Z,102571.13
2019-02-03T17:14:07.620Z,102581.58
2019-02-03T17:16:35.713Z,102583.77
2019-02-03T17:19:04.904Z,102589.84
2019-02-03T17:21:33.011Z,102580.79
2019-02-03T17:24:03.549Z,102593.34
2019-02-03T17:26:30.905Z,102588.59
2019-02-03T17:28:59.011Z,102594.68
2019-02-03T17:31:27.086Z,102599.87
2019-02-03T17:35:16.075Z,102550.20
2019-02-03T17:37:44.122Z,102617.17
2019-02-03T17:40:12.719Z,102622.80
2019-02-03T17:42:40.684Z,102617.17
2019-02-03T17:45:13.662Z,102622.38
2019-02-03T17:47:41.883Z,102629.29
2019-02-03T17:50:14.118Z,102637.05
2019-02-03T17:52:42.188Z,102637.00
2019-02-03T17:55:11.757Z,102643.48
2019-02-03T17:57:39.836Z,102646.94
2019-02-03T18:00:12.913Z,102648.23
2019-02-03T18:02:40.983Z,102642.14
2019-02-03T18:05:10.696Z,102645.14
2019-02-03T18:07:40.931Z,102649.03
2019-02-03T18:10:13.799Z,102651.17
2019-02-03T18:12:41.847Z,102653.33
2019-02-03T18:15:10.638Z,102656.72
2019-02-03T18:17:40.818Z,102658.86
2019-02-03T18:20:13.558Z,102664.00
2019-02-03T18:22:41.418Z,102662.34
2019-02-03T18:25:10.220Z,102664.05
2019-02-03T18:27:38.591Z,102668.27
2019-02-03T18:30:13.270Z,102680.02
2019-02-03T18:32:41.793Z,102691.67
2019-02-03T18:35:09.950Z,102688.23
2019-02-03T18:37:37.825Z,102689.09
2019-02-03T18:40:07.646Z,102686.05
2019-02-03T18:42:36.159Z,102683.02
2019-02-03T18:45:06.822Z,102690.39
2019-02-03T18:47:34.682Z,102688.69
2019-02-03T18:50:04.618Z,102686.05
2019-02-03T18:52:33.193Z,102689.05
2019-02-03T18:55:01.106Z,102686.90
2019-02-03T18:57:28.945Z,102694.66
2019-02-03T18:59:57.691Z,102694.27
2019-02-03T19:02:25.633Z,102692.09
2019-02-03T19:04:53.652Z,102695.06
2019-02-03T19:07:21.550Z,102694.61
2019-02-03T19:09:49.401Z,102692.41
2019-02-03T19:12:18.091Z,102693.63
2019-02-03T19:14:47.709Z,102696.22
2019-02-03T19:17:19.775Z,102696.61
2019-02-03T19:19:47.813Z,102693.63
2019-02-03T19:22:15.654Z,102698.75
2019-02-03T19:24:43.578Z,102693.55
2019-02-03T19:27:12.583Z,102692.27
2019-02-03T19:29:40.447Z,102694.41
2019-02-03T19:32:08.558Z,102697.37
2019-02-03T19:34:36.836Z,102699.17
2019-02-03T19:37:05.849Z,102699.63
2019-02-03T19:39:34.079Z,102690.97
2019-02-03T19:42:02.279Z,102699.59
2019-02-03T19:44:30.231Z,102696.98
2019-02-03T19:47:01.000Z,102702.07
2019-02-03T19:49:29.353Z,102703.84
2019-02-03T19:52:00.015Z,102701.69
2019-02-03T19:54:28.347Z,102703.81
2019-02-03T19:56:58.787Z,102711.52
2019-02-03T19:59:26.829Z,102711.84
2019-02-03T20:01:54.728Z,102710.12
2019-02-03T20:04:22.609Z,102709.27
2019-02-03T20:06:57.562Z,102717.40
2019-02-03T20:09:25.890Z,102721.74
2019-02-03T20:11:58.394Z,102726.09
2019-02-03T20:14:27.195Z,102727.82
2019-02-03T20:16:55.175Z,102725.64
2019-02-03T20:19:23.093Z,102729.06
2019-02-03T20:21:52.789Z,102732.25
2019-02-03T20:24:21.556Z,102738.41
2019-02-03T20:26:49.510Z,102744.92
2019-02-03T20:29:17.714Z,102748.71
2019-02-03T20:31:45.914Z,102755.50
2019-02-03T20:34:19.354Z,102749.15
2019-02-03T20:36:50.111Z,102756.41
2019-02-03T20:39:21.358Z,102761.15
2019-02-03T20:41:52.369Z,102764.55
2019-02-03T20:44:20.319Z,102759.87
2019-02-03T20:46:48.359Z,102763.69
2019-02-03T20:49:16.359Z,102763.62
2019-02-03T20:51:44.256Z,102758.55
2019-02-03T20:54:12.357Z,102766.73
2019-02-03T20:56:42.325Z,102758.37
2019-02-03T20:59:10.287Z,102761.36
2019-02-03T21:01:44.454Z,102762.17
2019-02-03T21:04:12.615Z,102764.75
2019-02-03T21:06:40.988Z,102767.02
2019-02-03T21:09:09.423Z,102769.53
2019-02-03T21:11:37.968Z,102767.31
2019-02-03T21:14:06.211Z,102764.86
2019-02-03T21:16:34.316Z,102757.04
2019-02-03T21:19:02.346Z,102759.25
2019-02-03T21:21:35.792Z,102752.44
2019-02-03T21:24:03.820Z,102747.81
2019-02-03T21:26:35.342Z,102752.41
2019-02-03T21:29:04.899Z,102750.62
2019-02-03T21:31:34.005Z,102745.73
2019-02-03T21:34:03.642Z,102746.19
2019-02-03T21:36:31.689Z,102755.11
2019-02-03T21:39:01.267Z,102750.44
2019-02-03T21:41:29.259Z,102755.13
2019-02-03T21:43:57.356Z,102757.66
2019-02-03T21:46:27.260Z,102761.55
2019-02-03T21:48:55.232Z,102761.55
2019-02-03T21:51:23.662Z,102769.98
2019-02-03T21:53:51.837Z,102761.45
2019-02-03T21:56:19.777Z,102763.84
2019-02-03T21:58:47.713Z,102768.56
2019-02-03T22:01:17.279Z,102759.28
2019-02-03T22:03:45.295Z,102756.72
2019-02-03T22:06:14.684Z,102759.34
2019-02-03T22:08:42.696Z,102753.31
2019-02-03T22:11:10.635Z,102750.05
2019-02-03T22:13:38.539Z,102748.81
2019-02-03T22:16:06.693Z,102746.58
2019-02-03T22:18:34.571Z,102739.36
2019-02-03T22:21:05.680Z,102733.23
2019-02-03T22:23:33.883Z,102735.28
2019-02-03T22:26:03.461Z,102726.39
2019-02-03T22:28:34.361Z,102725.26
2019-02-03T22:31:04.634Z,102730.00
2019-02-03T22:33:33.313Z,102730.44
2019-02-03T22:36:03.789Z,102725.92
2019-02-03T22:38:31.925Z,102730.80
2019-02-03T22:41:01.518Z,102733.03
2019-02-03T22:43:29.659Z,102735.13
2019-02-03T22:46:07.097Z,102739.98
2019-02-03T22:48:30.457Z,102732.36
2019-02-03T22:50:58.641Z,102735.48
2019-02-03T22:53:29.531Z,102736.41
2019-02-03T22:55:57.583Z,102742.71
2019-02-03T22:58:30.234Z,102737.30
2019-02-03T23:01:13.907Z,102736.08
2019-02-03T23:04:20.627Z,102738.97
2019-02-03T23:06:51.746Z,102733.69
2019-02-03T23:09:26.855Z,102741.97
2019-02-03T23:11:55.457Z,102739.88
2019-02-03T23:14:23.531Z,102739.44
2019-02-03T23:16:51.562Z,102749.27
2019-02-03T23:19:22.855Z,102743.70
2019-02-03T23:21:51.040Z,102738.50
2019-02-03T23:24:22.044Z,102747.40
2019-02-03T23:26:52.578Z,102741.66
2019-02-03T23:29:22.998Z,102746.95
2019-02-03T23:31:53.811Z,102738.52
2019-02-03T23:34:23.867Z,102747.80
2019-02-03T23:36:53.328Z,102745.73
2019-02-03T23:39:21.590Z,102746.13
2019-02-03T23:41:49.419Z,102742.98
2019-02-03T23:44:17.691Z,102741.86
2019-02-03T23:46:45.730Z,102746.44
2019-02-03T23:49:13.647Z,102742.19
2019-02-03T23:51:41.773Z,102740.95
2019-02-03T23:54:09.864Z,102751.89
2019-02-03T23:56:37.836Z,102747.66
2019-02-03T23:59:06.315Z,102748.55
